Impacts METAR Board INFO
IDs:

KBOS - Boston/Logan Intl, MA, US

Updated at: 2134 UTC 17 Dec 2017
Potential Impact None Slight Moderate High
Time17/09Z 17/10Z 17/11Z 17/12Z 17/13Z 17/14Z 17/15Z 17/16Z 17/17Z 17/18Z 17/19Z 17/20Z 17/21Z
VIS10 10 10 10 10 10 10 10 10 10 10 10 10
CIG-- -- -- -- -- -- -- -- -- -- -- 180 180
CoverCLRCLRCLRFEWFEWFEWFEWFEWFEWSCTSCTOVCOVC
FltCatVFRVFRVFRVFRVFRVFRVFRVFRVFRVFRVFRVFRVFR
WX--------------------------
WDir280280290290290290300320320330300330270
WSpd10 12 11 12 7 10 11 12 10 8 8 7 8
WGst-- -- -- -- -- -- -- -- -- -- -- -- --
Raw hourly METARs
KBOS 170854Z 28010KT 10SM CLR M06/M13 A3021 RMK AO2 SLP230 T10561133 51012
KBOS 170954Z 28012KT 10SM CLR M06/M13 A3023 RMK AO2 SLP236 T10611128
KBOS 171054Z 29011KT 10SM CLR M07/M14 A3026 RMK AO2 SLP245 T10671139
KBOS 171154Z 29012KT 10SM FEW030 FEW120 M07/M14 A3027 RMK AO2 SLP248 T10671144 11044 21067 51018
KBOS 171254Z 29007KT 10SM FEW030 FEW120 M07/M14 A3027 RMK AO2 SLP249 T10671144
KBOS 171354Z 29010KT 10SM FEW030 FEW250 M06/M14 A3028 RMK AO2 SLP253 T10561144
KBOS 171454Z 30011KT 10SM FEW030 FEW250 M04/M16 A3028 RMK AO2 SLP254 T10441156 53006
KBOS 171554Z 32012KT 10SM FEW030 FEW250 M04/M16 A3027 RMK AO2 SLP249 T10391156
KBOS 171654Z 32010KT 10SM FEW030 FEW250 M02/M17 A3025 RMK AO2 SLP243 T10221167
KBOS 171754Z 33008KT 10SM FEW030 SCT250 M02/M17 A3023 RMK AO2 SLP235 T10171167 11017 21067 58019
KBOS 171854Z 30008KT 10SM FEW030 SCT250 M01/M17 A3022 RMK AO2 SLP233 T10111172
KBOS 171954Z 33007KT 10SM OVC180 M02/M17 A3021 RMK AO2 SLP229 T10171167
KBOS 172054Z 27008KT 10SM FEW150 BKN180 OVC220 M02/M16 A3024 RMK AO2 SLP240 T10171161 53005